sensor_id;sensor_type;location;lat;lon;timestamp;P1;durP1;ratioP1;P2;durP2;ratioP2
48813;SDS011;34634;44.108;3.074;2023-02-03T00:00:02;43.58;;;17.83;;
48813;SDS011;34634;44.108;3.074;2023-02-03T00:02:28;51.47;;;20.77;;
48813;SDS011;34634;44.108;3.074;2023-02-03T00:04:55;57.45;;;21.80;;
48813;SDS011;34634;44.108;3.074;2023-02-03T00:07:21;118.18;;;42.78;;
48813;SDS011;34634;44.108;3.074;2023-02-03T00:09:47;78.00;;;30.48;;
48813;SDS011;34634;44.108;3.074;2023-02-03T00:12:14;59.28;;;23.80;;
48813;SDS011;34634;44.108;3.074;2023-02-03T00:14:40;48.47;;;20.77;;
48813;SDS011;34634;44.108;3.074;2023-02-03T00:17:06;41.58;;;18.05;;
48813;SDS011;34634;44.108;3.074;2023-02-03T00:19:33;36.10;;;16.25;;
48813;SDS011;34634;44.108;3.074;2023-02-03T00:21:59;37.03;;;16.10;;
48813;SDS011;34634;44.108;3.074;2023-02-03T00:24:26;38.80;;;15.70;;
48813;SDS011;34634;44.108;3.074;2023-02-03T00:26:52;32.63;;;14.40;;
48813;SDS011;34634;44.108;3.074;2023-02-03T00:29:19;45.17;;;15.60;;
48813;SDS011;34634;44.108;3.074;2023-02-03T00:31:49;56.90;;;20.95;;
48813;SDS011;34634;44.108;3.074;2023-02-03T00:34:15;43.55;;;18.23;;
48813;SDS011;34634;44.108;3.074;2023-02-03T00:36:41;44.20;;;15.70;;
48813;SDS011;34634;44.108;3.074;2023-02-03T00:39:08;51.13;;;17.17;;
48813;SDS011;34634;44.108;3.074;2023-02-03T00:41:34;48.08;;;18.63;;
48813;SDS011;34634;44.108;3.074;2023-02-03T00:44:00;181.02;;;51.08;;
48813;SDS011;34634;44.108;3.074;2023-02-03T00:46:27;68.88;;;21.95;;
48813;SDS011;34634;44.108;3.074;2023-02-03T00:48:53;68.32;;;22.95;;
48813;SDS011;34634;44.108;3.074;2023-02-03T00:51:19;54.72;;;18.70;;
48813;SDS011;34634;44.108;3.074;2023-02-03T00:53:46;36.95;;;14.55;;
48813;SDS011;34634;44.108;3.074;2023-02-03T00:56:12;32.72;;;11.13;;
48813;SDS011;34634;44.108;3.074;2023-02-03T00:58:39;28.65;;;10.77;;
48813;SDS011;34634;44.108;3.074;2023-02-03T01:01:06;45.05;;;14.10;;
48813;SDS011;34634;44.108;3.074;2023-02-03T01:03:32;38.58;;;14.50;;
48813;SDS011;34634;44.108;3.074;2023-02-03T01:08:54;36.92;;;13.50;;
48813;SDS011;34634;44.108;3.074;2023-02-03T01:11:24;32.80;;;12.40;;
48813;SDS011;34634;44.108;3.074;2023-02-03T01:13:52;33.85;;;12.30;;
48813;SDS011;34634;44.108;3.074;2023-02-03T01:16:19;35.53;;;12.15;;
48813;SDS011;34634;44.108;3.074;2023-02-03T01:18:46;28.75;;;10.25;;
48813;SDS011;34634;44.108;3.074;2023-02-03T01:21:14;22.70;;;9.98;;
48813;SDS011;34634;44.108;3.074;2023-02-03T01:23:41;24.10;;;9.32;;
48813;SDS011;34634;44.108;3.074;2023-02-03T01:26:09;23.70;;;9.40;;
48813;SDS011;34634;44.108;3.074;2023-02-03T01:28:36;24.20;;;10.93;;
48813;SDS011;34634;44.108;3.074;2023-02-03T01:33:35;24.98;;;10.25;;
48813;SDS011;34634;44.108;3.074;2023-02-03T01:36:04;23.80;;;9.82;;
48813;SDS011;34634;44.108;3.074;2023-02-03T01:38:31;29.08;;;12.52;;
48813;SDS011;34634;44.108;3.074;2023-02-03T01:40:57;33.88;;;13.73;;
48813;SDS011;34634;44.108;3.074;2023-02-03T01:43:31;31.17;;;12.00;;
48813;SDS011;34634;44.108;3.074;2023-02-03T01:45:58;25.55;;;11.93;;
48813;SDS011;34634;44.108;3.074;2023-02-03T01:48:24;21.35;;;8.88;;
48813;SDS011;34634;44.108;3.074;2023-02-03T01:50:51;27.10;;;10.63;;
48813;SDS011;34634;44.108;3.074;2023-02-03T01:53:17;23.00;;;9.93;;
48813;SDS011;34634;44.108;3.074;2023-02-03T01:55:44;22.92;;;9.65;;
48813;SDS011;34634;44.108;3.074;2023-02-03T01:58:14;28.55;;;10.25;;
48813;SDS011;34634;44.108;3.074;2023-02-03T02:00:41;25.77;;;10.23;;
48813;SDS011;34634;44.108;3.074;2023-02-03T02:03:08;29.30;;;10.95;;
48813;SDS011;34634;44.108;3.074;2023-02-03T02:08:04;30.50;;;12.30;;
48813;SDS011;34634;44.108;3.074;2023-02-03T02:10:32;30.15;;;11.77;;
48813;SDS011;34634;44.108;3.074;2023-02-03T02:12:59;32.85;;;11.73;;
48813;SDS011;34634;44.108;3.074;2023-02-03T02:15:30;32.65;;;12.52;;
48813;SDS011;34634;44.108;3.074;2023-02-03T02:21:17;17.63;;;7.20;;
48813;SDS011;34634;44.108;3.074;2023-02-03T02:23:24;22.27;;;8.45;;
48813;SDS011;34634;44.108;3.074;2023-02-03T02:39:37;30.40;;;11.95;;
48813;SDS011;34634;44.108;3.074;2023-02-03T02:42:06;26.38;;;11.23;;
48813;SDS011;34634;44.108;3.074;2023-02-03T02:44:40;26.98;;;11.52;;
48813;SDS011;34634;44.108;3.074;2023-02-03T02:47:27;31.23;;;10.05;;
48813;SDS011;34634;44.108;3.074;2023-02-03T02:49:55;24.20;;;10.50;;
48813;SDS011;34634;44.108;3.074;2023-02-03T02:52:23;27.83;;;11.43;;
48813;SDS011;34634;44.108;3.074;2023-02-03T02:54:52;26.45;;;10.27;;
48813;SDS011;34634;44.108;3.074;2023-02-03T02:57:19;28.25;;;11.27;;
48813;SDS011;34634;44.108;3.074;2023-02-03T02:59:47;21.77;;;8.70;;
48813;SDS011;34634;44.108;3.074;2023-02-03T03:02:13;24.85;;;9.73;;
48813;SDS011;34634;44.108;3.074;2023-02-03T03:04:41;32.20;;;11.35;;
48813;SDS011;34634;44.108;3.074;2023-02-03T03:07:13;27.52;;;9.45;;
48813;SDS011;34634;44.108;3.074;2023-02-03T03:09:43;30.98;;;11.27;;
48813;SDS011;34634;44.108;3.074;2023-02-03T03:12:22;30.92;;;11.82;;
48813;SDS011;34634;44.108;3.074;2023-02-03T03:14:49;32.92;;;12.50;;
48813;SDS011;34634;44.108;3.074;2023-02-03T03:17:20;23.08;;;9.40;;
48813;SDS011;34634;44.108;3.074;2023-02-03T03:19:50;24.70;;;9.25;;
48813;SDS011;34634;44.108;3.074;2023-02-03T03:22:17;23.35;;;9.18;;
48813;SDS011;34634;44.108;3.074;2023-02-03T03:24:47;23.75;;;8.75;;
48813;SDS011;34634;44.108;3.074;2023-02-03T03:27:16;24.52;;;8.77;;
48813;SDS011;34634;44.108;3.074;2023-02-03T03:32:15;25.95;;;11.80;;
48813;SDS011;34634;44.108;3.074;2023-02-03T03:34:42;33.00;;;14.63;;
48813;SDS011;34634;44.108;3.074;2023-02-03T03:37:18;30.48;;;12.27;;
48813;SDS011;34634;44.108;3.074;2023-02-03T03:40:06;27.25;;;11.80;;
48813;SDS011;34634;44.108;3.074;2023-02-03T03:42:39;29.92;;;10.55;;
48813;SDS011;34634;44.108;3.074;2023-02-03T03:45:08;27.48;;;10.43;;
48813;SDS011;34634;44.108;3.074;2023-02-03T03:50:03;31.60;;;12.40;;
48813;SDS011;34634;44.108;3.074;2023-02-03T03:52:31;28.10;;;9.82;;
48813;SDS011;34634;44.108;3.074;2023-02-03T03:54:59;32.65;;;11.70;;
48813;SDS011;34634;44.108;3.074;2023-02-03T03:57:30;25.13;;;8.30;;
48813;SDS011;34634;44.108;3.074;2023-02-03T04:00:00;21.77;;;8.50;;
48813;SDS011;34634;44.108;3.074;2023-02-03T04:02:27;19.55;;;7.78;;
48813;SDS011;34634;44.108;3.074;2023-02-03T04:04:54;27.15;;;10.00;;
48813;SDS011;34634;44.108;3.074;2023-02-03T04:07:23;19.23;;;7.20;;
48813;SDS011;34634;44.108;3.074;2023-02-03T04:10:03;21.48;;;7.35;;
48813;SDS011;34634;44.108;3.074;2023-02-03T04:12:29;14.35;;;6.38;;
48813;SDS011;34634;44.108;3.074;2023-02-03T04:14:56;10.73;;;4.57;;
48813;SDS011;34634;44.108;3.074;2023-02-03T04:17:22;15.93;;;4.65;;
48813;SDS011;34634;44.108;3.074;2023-02-03T04:19:48;14.75;;;4.97;;
48813;SDS011;34634;44.108;3.074;2023-02-03T04:22:14;19.25;;;6.82;;
48813;SDS011;34634;44.108;3.074;2023-02-03T04:24:41;21.60;;;6.80;;
48813;SDS011;34634;44.108;3.074;2023-02-03T04:27:07;20.83;;;7.38;;
48813;SDS011;34634;44.108;3.074;2023-02-03T04:29:33;19.52;;;7.80;;
48813;SDS011;34634;44.108;3.074;2023-02-03T04:32:00;21.25;;;8.32;;
48813;SDS011;34634;44.108;3.074;2023-02-03T04:34:26;15.07;;;6.47;;
48813;SDS011;34634;44.108;3.074;2023-02-03T04:36:52;14.55;;;6.65;;
48813;SDS011;34634;44.108;3.074;2023-02-03T04:39:19;17.65;;;6.65;;
48813;SDS011;34634;44.108;3.074;2023-02-03T04:41:45;17.10;;;6.82;;
48813;SDS011;34634;44.108;3.074;2023-02-03T04:44:11;18.55;;;6.13;;
48813;SDS011;34634;44.108;3.074;2023-02-03T04:46:38;15.02;;;6.97;;
48813;SDS011;34634;44.108;3.074;2023-02-03T04:49:04;17.83;;;6.75;;
48813;SDS011;34634;44.108;3.074;2023-02-03T04:51:30;16.27;;;6.07;;
48813;SDS011;34634;44.108;3.074;2023-02-03T04:53:57;16.27;;;5.53;;
48813;SDS011;34634;44.108;3.074;2023-02-03T04:56:23;15.00;;;5.88;;
48813;SDS011;34634;44.108;3.074;2023-02-03T04:58:49;14.88;;;5.95;;
48813;SDS011;34634;44.108;3.074;2023-02-03T05:01:16;14.85;;;5.88;;
48813;SDS011;34634;44.108;3.074;2023-02-03T05:03:42;17.73;;;5.10;;
48813;SDS011;34634;44.108;3.074;2023-02-03T05:06:08;15.25;;;5.15;;
48813;SDS011;34634;44.108;3.074;2023-02-03T05:08:34;12.43;;;4.93;;
48813;SDS011;34634;44.108;3.074;2023-02-03T05:11:01;10.52;;;4.68;;
48813;SDS011;34634;44.108;3.074;2023-02-03T05:13:27;14.65;;;6.13;;
48813;SDS011;34634;44.108;3.074;2023-02-03T05:15:54;16.67;;;4.90;;
48813;SDS011;34634;44.108;3.074;2023-02-03T05:18:20;13.93;;;4.85;;
48813;SDS011;34634;44.108;3.074;2023-02-03T05:20:46;18.33;;;5.68;;
48813;SDS011;34634;44.108;3.074;2023-02-03T05:23:13;12.30;;;5.53;;
48813;SDS011;34634;44.108;3.074;2023-02-03T05:25:39;16.08;;;6.75;;
48813;SDS011;34634;44.108;3.074;2023-02-03T05:28:05;18.33;;;7.35;;
48813;SDS011;34634;44.108;3.074;2023-02-03T05:30:32;18.60;;;7.40;;
48813;SDS011;34634;44.108;3.074;2023-02-03T05:32:58;17.63;;;6.97;;
48813;SDS011;34634;44.108;3.074;2023-02-03T05:35:24;17.88;;;7.18;;
48813;SDS011;34634;44.108;3.074;2023-02-03T05:37:51;16.52;;;7.93;;
48813;SDS011;34634;44.108;3.074;2023-02-03T05:40:17;25.30;;;11.32;;
48813;SDS011;34634;44.108;3.074;2023-02-03T05:43:02;34.55;;;15.00;;
48813;SDS011;34634;44.108;3.074;2023-02-03T05:45:28;25.73;;;9.75;;
48813;SDS011;34634;44.108;3.074;2023-02-03T05:47:54;15.73;;;6.93;;
48813;SDS011;34634;44.108;3.074;2023-02-03T05:50:21;20.73;;;9.90;;
48813;SDS011;34634;44.108;3.074;2023-02-03T05:52:47;19.98;;;8.40;;
48813;SDS011;34634;44.108;3.074;2023-02-03T05:55:14;19.77;;;8.90;;
48813;SDS011;34634;44.108;3.074;2023-02-03T05:57:40;18.48;;;8.10;;
48813;SDS011;34634;44.108;3.074;2023-02-03T06:00:07;20.02;;;7.63;;
48813;SDS011;34634;44.108;3.074;2023-02-03T06:02:33;21.38;;;9.63;;
48813;SDS011;34634;44.108;3.074;2023-02-03T06:05:00;22.27;;;9.63;;
48813;SDS011;34634;44.108;3.074;2023-02-03T06:07:26;20.98;;;8.40;;
48813;SDS011;34634;44.108;3.074;2023-02-03T06:09:52;17.52;;;8.32;;
48813;SDS011;34634;44.108;3.074;2023-02-03T06:12:18;25.27;;;7.88;;
48813;SDS011;34634;44.108;3.074;2023-02-03T06:14:45;19.40;;;7.95;;
48813;SDS011;34634;44.108;3.074;2023-02-03T06:17:11;16.83;;;7.55;;
48813;SDS011;34634;44.108;3.074;2023-02-03T06:19:37;95.32;;;23.48;;
48813;SDS011;34634;44.108;3.074;2023-02-03T06:22:04;51.53;;;13.18;;
48813;SDS011;34634;44.108;3.074;2023-02-03T06:24:30;27.92;;;9.30;;
48813;SDS011;34634;44.108;3.074;2023-02-03T06:26:56;40.67;;;17.05;;
48813;SDS011;34634;44.108;3.074;2023-02-03T06:29:22;32.22;;;12.98;;
48813;SDS011;34634;44.108;3.074;2023-02-03T06:31:49;23.63;;;11.57;;
48813;SDS011;34634;44.108;3.074;2023-02-03T06:34:15;44.20;;;15.63;;
48813;SDS011;34634;44.108;3.074;2023-02-03T06:36:41;49.25;;;14.65;;
48813;SDS011;34634;44.108;3.074;2023-02-03T06:39:08;36.28;;;12.20;;
48813;SDS011;34634;44.108;3.074;2023-02-03T06:41:34;24.42;;;10.43;;
48813;SDS011;34634;44.108;3.074;2023-02-03T06:44:00;50.45;;;16.15;;
48813;SDS011;34634;44.108;3.074;2023-02-03T06:46:27;41.08;;;12.73;;
48813;SDS011;34634;44.108;3.074;2023-02-03T06:48:54;65.20;;;17.60;;
48813;SDS011;34634;44.108;3.074;2023-02-03T06:51:21;31.10;;;9.98;;
48813;SDS011;34634;44.108;3.074;2023-02-03T06:53:49;39.08;;;13.10;;
48813;SDS011;34634;44.108;3.074;2023-02-03T06:56:15;38.53;;;11.65;;
48813;SDS011;34634;44.108;3.074;2023-02-03T06:58:41;56.90;;;18.10;;
48813;SDS011;34634;44.108;3.074;2023-02-03T07:01:08;87.18;;;24.25;;
48813;SDS011;34634;44.108;3.074;2023-02-03T07:03:35;68.00;;;19.90;;
48813;SDS011;34634;44.108;3.074;2023-02-03T07:06:01;60.10;;;18.38;;
48813;SDS011;34634;44.108;3.074;2023-02-03T07:08:27;56.08;;;16.70;;
48813;SDS011;34634;44.108;3.074;2023-02-03T07:10:54;63.40;;;18.77;;
48813;SDS011;34634;44.108;3.074;2023-02-03T07:13:20;50.10;;;15.88;;
48813;SDS011;34634;44.108;3.074;2023-02-03T07:15:46;52.30;;;17.90;;
48813;SDS011;34634;44.108;3.074;2023-02-03T07:18:13;46.72;;;18.42;;
48813;SDS011;34634;44.108;3.074;2023-02-03T07:20:40;55.20;;;19.42;;
48813;SDS011;34634;44.108;3.074;2023-02-03T07:23:06;60.55;;;24.10;;
48813;SDS011;34634;44.108;3.074;2023-02-03T07:25:33;49.20;;;21.02;;
48813;SDS011;34634;44.108;3.074;2023-02-03T07:27:59;38.85;;;18.00;;
48813;SDS011;34634;44.108;3.074;2023-02-03T07:30:25;33.90;;;15.45;;
48813;SDS011;34634;44.108;3.074;2023-02-03T07:32:52;30.25;;;13.85;;
48813;SDS011;34634;44.108;3.074;2023-02-03T07:35:19;34.00;;;15.27;;
48813;SDS011;34634;44.108;3.074;2023-02-03T07:37:46;28.73;;;11.57;;
48813;SDS011;34634;44.108;3.074;2023-02-03T07:40:13;52.95;;;19.85;;
48813;SDS011;34634;44.108;3.074;2023-02-03T07:42:40;39.17;;;13.27;;
48813;SDS011;34634;44.108;3.074;2023-02-03T07:45:07;46.53;;;16.38;;
48813;SDS011;34634;44.108;3.074;2023-02-03T07:47:34;27.20;;;11.55;;
48813;SDS011;34634;44.108;3.074;2023-02-03T07:50:01;43.67;;;15.13;;
48813;SDS011;34634;44.108;3.074;2023-02-03T07:52:27;51.72;;;16.58;;
48813;SDS011;34634;44.108;3.074;2023-02-03T07:54:53;35.17;;;12.52;;
48813;SDS011;34634;44.108;3.074;2023-02-03T07:57:20;37.72;;;12.15;;
48813;SDS011;34634;44.108;3.074;2023-02-03T07:59:47;31.10;;;11.18;;
48813;SDS011;34634;44.108;3.074;2023-02-03T08:02:13;25.23;;;8.70;;
48813;SDS011;34634;44.108;3.074;2023-02-03T08:04:39;55.78;;;10.23;;
48813;SDS011;34634;44.108;3.074;2023-02-03T08:07:06;23.00;;;9.80;;
48813;SDS011;34634;44.108;3.074;2023-02-03T08:09:32;25.90;;;12.30;;
48813;SDS011;34634;44.108;3.074;2023-02-03T08:11:58;34.90;;;12.73;;
48813;SDS011;34634;44.108;3.074;2023-02-03T08:14:24;25.13;;;11.93;;
48813;SDS011;34634;44.108;3.074;2023-02-03T08:16:51;28.55;;;11.88;;
48813;SDS011;34634;44.108;3.074;2023-02-03T08:19:17;47.75;;;13.00;;
48813;SDS011;34634;44.108;3.074;2023-02-03T08:21:43;54.40;;;12.20;;
48813;SDS011;34634;44.108;3.074;2023-02-03T08:24:10;46.50;;;16.27;;
48813;SDS011;34634;44.108;3.074;2023-02-03T08:26:36;49.60;;;12.50;;
48813;SDS011;34634;44.108;3.074;2023-02-03T08:29:02;44.47;;;12.30;;
48813;SDS011;34634;44.108;3.074;2023-02-03T08:31:29;39.80;;;10.80;;
48813;SDS011;34634;44.108;3.074;2023-02-03T08:33:55;40.65;;;10.57;;
48813;SDS011;34634;44.108;3.074;2023-02-03T08:36:22;27.85;;;9.65;;
48813;SDS011;34634;44.108;3.074;2023-02-03T08:38:48;22.50;;;10.00;;
48813;SDS011;34634;44.108;3.074;2023-02-03T08:41:15;28.85;;;9.98;;
48813;SDS011;34634;44.108;3.074;2023-02-03T08:43:42;23.38;;;11.75;;
48813;SDS011;34634;44.108;3.074;2023-02-03T08:46:09;25.60;;;11.73;;
48813;SDS011;34634;44.108;3.074;2023-02-03T08:48:38;26.73;;;12.07;;
48813;SDS011;34634;44.108;3.074;2023-02-03T08:51:14;30.00;;;11.80;;
48813;SDS011;34634;44.108;3.074;2023-02-03T08:53:41;28.33;;;11.38;;
48813;SDS011;34634;44.108;3.074;2023-02-03T08:56:08;32.35;;;12.15;;
48813;SDS011;34634;44.108;3.074;2023-02-03T08:58:35;27.50;;;11.88;;
48813;SDS011;34634;44.108;3.074;2023-02-03T09:01:08;19.85;;;10.73;;
48813;SDS011;34634;44.108;3.074;2023-02-03T09:03:35;25.25;;;11.55;;
48813;SDS011;34634;44.108;3.074;2023-02-03T09:06:02;20.20;;;10.13;;
48813;SDS011;34634;44.108;3.074;2023-02-03T09:08:28;27.25;;;11.65;;
48813;SDS011;34634;44.108;3.074;2023-02-03T09:10:55;21.25;;;10.88;;
48813;SDS011;34634;44.108;3.074;2023-02-03T09:13:21;20.00;;;10.48;;
48813;SDS011;34634;44.108;3.074;2023-02-03T09:15:48;22.25;;;10.77;;
48813;SDS011;34634;44.108;3.074;2023-02-03T09:18:14;21.48;;;10.77;;
48813;SDS011;34634;44.108;3.074;2023-02-03T09:20:40;21.60;;;10.75;;
48813;SDS011;34634;44.108;3.074;2023-02-03T09:23:07;25.40;;;11.63;;
48813;SDS011;34634;44.108;3.074;2023-02-03T09:25:33;24.67;;;11.18;;
48813;SDS011;34634;44.108;3.074;2023-02-03T09:28:02;21.83;;;10.65;;
48813;SDS011;34634;44.108;3.074;2023-02-03T09:30:29;21.30;;;11.05;;
48813;SDS011;34634;44.108;3.074;2023-02-03T09:32:55;23.33;;;11.63;;
48813;SDS011;34634;44.108;3.074;2023-02-03T09:35:23;19.45;;;11.55;;
48813;SDS011;34634;44.108;3.074;2023-02-03T09:37:51;23.67;;;12.07;;
48813;SDS011;34634;44.108;3.074;2023-02-03T09:40:20;22.70;;;11.75;;
48813;SDS011;34634;44.108;3.074;2023-02-03T09:45:26;23.77;;;12.90;;
48813;SDS011;34634;44.108;3.074;2023-02-03T09:47:53;22.42;;;12.60;;
48813;SDS011;34634;44.108;3.074;2023-02-03T09:50:23;19.65;;;11.82;;
48813;SDS011;34634;44.108;3.074;2023-02-03T09:52:51;19.88;;;9.80;;
48813;SDS011;34634;44.108;3.074;2023-02-03T09:57:47;16.63;;;9.10;;
48813;SDS011;34634;44.108;3.074;2023-02-03T10:00:18;20.63;;;9.52;;
48813;SDS011;34634;44.108;3.074;2023-02-03T10:05:26;23.17;;;10.27;;
48813;SDS011;34634;44.108;3.074;2023-02-03T10:10:38;20.30;;;10.15;;
48813;SDS011;34634;44.108;3.074;2023-02-03T10:13:14;24.95;;;10.02;;
48813;SDS011;34634;44.108;3.074;2023-02-03T10:18:16;19.77;;;11.30;;
48813;SDS011;34634;44.108;3.074;2023-02-03T10:20:45;18.20;;;10.90;;
48813;SDS011;34634;44.108;3.074;2023-02-03T10:23:15;16.90;;;10.57;;
48813;SDS011;34634;44.108;3.074;2023-02-03T10:25:47;19.92;;;9.80;;
48813;SDS011;34634;44.108;3.074;2023-02-03T10:28:18;19.80;;;9.10;;
48813;SDS011;34634;44.108;3.074;2023-02-03T10:30:47;16.42;;;9.00;;
48813;SDS011;34634;44.108;3.074;2023-02-03T10:33:15;18.83;;;7.97;;
48813;SDS011;34634;44.108;3.074;2023-02-03T10:35:54;17.85;;;7.50;;
48813;SDS011;34634;44.108;3.074;2023-02-03T10:38:34;15.68;;;7.47;;
48813;SDS011;34634;44.108;3.074;2023-02-03T10:41:03;16.58;;;7.90;;
48813;SDS011;34634;44.108;3.074;2023-02-03T10:43:30;16.27;;;7.90;;
48813;SDS011;34634;44.108;3.074;2023-02-03T10:46:13;14.63;;;8.27;;
48813;SDS011;34634;44.108;3.074;2023-02-03T10:48:39;13.98;;;7.38;;
48813;SDS011;34634;44.108;3.074;2023-02-03T10:51:21;13.95;;;8.07;;
48813;SDS011;34634;44.108;3.074;2023-02-03T10:53:48;13.25;;;7.65;;
48813;SDS011;34634;44.108;3.074;2023-02-03T10:56:19;14.07;;;7.53;;
48813;SDS011;34634;44.108;3.074;2023-02-03T10:58:48;15.48;;;7.70;;
48813;SDS011;34634;44.108;3.074;2023-02-03T11:01:16;15.20;;;7.13;;
48813;SDS011;34634;44.108;3.074;2023-02-03T11:03:43;15.30;;;7.13;;
48813;SDS011;34634;44.108;3.074;2023-02-03T11:06:14;17.38;;;7.90;;
48813;SDS011;34634;44.108;3.074;2023-02-03T11:08:41;15.90;;;7.85;;
48813;SDS011;34634;44.108;3.074;2023-02-03T11:11:12;15.55;;;6.88;;
48813;SDS011;34634;44.108;3.074;2023-02-03T11:13:38;14.82;;;7.28;;
48813;SDS011;34634;44.108;3.074;2023-02-03T11:16:13;10.20;;;5.85;;
48813;SDS011;34634;44.108;3.074;2023-02-03T11:18:50;11.75;;;5.20;;
48813;SDS011;34634;44.108;3.074;2023-02-03T11:21:18;17.15;;;5.80;;
48813;SDS011;34634;44.108;3.074;2023-02-03T11:26:12;18.20;;;6.45;;
48813;SDS011;34634;44.108;3.074;2023-02-03T11:28:40;13.77;;;6.85;;
48813;SDS011;34634;44.108;3.074;2023-02-03T11:31:14;11.25;;;5.43;;
48813;SDS011;34634;44.108;3.074;2023-02-03T11:33:45;12.10;;;5.18;;
48813;SDS011;34634;44.108;3.074;2023-02-03T11:36:11;9.40;;;4.03;;
48813;SDS011;34634;44.108;3.074;2023-02-03T11:38:38;11.70;;;4.38;;
48813;SDS011;34634;44.108;3.074;2023-02-03T11:41:12;12.73;;;4.75;;
48813;SDS011;34634;44.108;3.074;2023-02-03T11:43:40;12.23;;;5.63;;
48813;SDS011;34634;44.108;3.074;2023-02-03T11:46:07;17.42;;;7.85;;
48813;SDS011;34634;44.108;3.074;2023-02-03T12:14:01;11.43;;;3.65;;
48813;SDS011;34634;44.108;3.074;2023-02-03T12:19:27;11.23;;;3.17;;
48813;SDS011;34634;44.108;3.074;2023-02-03T12:22:07;10.05;;;3.35;;
48813;SDS011;34634;44.108;3.074;2023-02-03T12:24:50;7.90;;;3.42;;
48813;SDS011;34634;44.108;3.074;2023-02-03T12:27:24;10.48;;;3.28;;
48813;SDS011;34634;44.108;3.074;2023-02-03T12:29:58;9.80;;;2.78;;
48813;SDS011;34634;44.108;3.074;2023-02-03T12:34:55;10.93;;;2.78;;
48813;SDS011;34634;44.108;3.074;2023-02-03T12:37:26;8.23;;;2.65;;
48813;SDS011;34634;44.108;3.074;2023-02-03T12:39:57;7.93;;;2.63;;
48813;SDS011;34634;44.108;3.074;2023-02-03T12:42:36;7.68;;;2.90;;
48813;SDS011;34634;44.108;3.074;2023-02-03T12:45:09;4.93;;;2.40;;
48813;SDS011;34634;44.108;3.074;2023-02-03T12:47:44;4.40;;;2.28;;
48813;SDS011;34634;44.108;3.074;2023-02-03T12:50:13;9.57;;;2.60;;
48813;SDS011;34634;44.108;3.074;2023-02-03T12:52:43;4.72;;;2.40;;
48813;SDS011;34634;44.108;3.074;2023-02-03T12:55:17;6.35;;;2.45;;
48813;SDS011;34634;44.108;3.074;2023-02-03T12:57:50;6.65;;;2.50;;
48813;SDS011;34634;44.108;3.074;2023-02-03T13:00:39;5.82;;;2.30;;
48813;SDS011;34634;44.108;3.074;2023-02-03T13:14:21;4.53;;;2.20;;
48813;SDS011;34634;44.108;3.074;2023-02-03T13:16:50;6.45;;;3.53;;
48813;SDS011;34634;44.108;3.074;2023-02-03T13:19:21;6.93;;;2.83;;
48813;SDS011;34634;44.108;3.074;2023-02-03T13:21:49;4.40;;;2.80;;
48813;SDS011;34634;44.108;3.074;2023-02-03T13:24:17;7.32;;;3.42;;
48813;SDS011;34634;44.108;3.074;2023-02-03T13:36:50;6.10;;;2.30;;
48813;SDS011;34634;44.108;3.074;2023-02-03T13:39:42;7.28;;;2.65;;
48813;SDS011;34634;44.108;3.074;2023-02-03T13:44:37;5.43;;;2.63;;
48813;SDS011;34634;44.108;3.074;2023-02-03T13:47:04;7.65;;;2.75;;
48813;SDS011;34634;44.108;3.074;2023-02-03T13:49:34;4.72;;;2.20;;
48813;SDS011;34634;44.108;3.074;2023-02-03T13:52:01;5.35;;;2.75;;
48813;SDS011;34634;44.108;3.074;2023-02-03T13:54:32;6.45;;;2.65;;
48813;SDS011;34634;44.108;3.074;2023-02-03T13:59:27;7.43;;;2.78;;
48813;SDS011;34634;44.108;3.074;2023-02-03T14:04:50;4.40;;;2.70;;
48813;SDS011;34634;44.108;3.074;2023-02-03T14:07:34;7.07;;;2.15;;
48813;SDS011;34634;44.108;3.074;2023-02-03T14:10:12;6.15;;;2.50;;
48813;SDS011;34634;44.108;3.074;2023-02-03T14:22:52;7.32;;;2.88;;
48813;SDS011;34634;44.108;3.074;2023-02-03T14:25:20;10.00;;;2.97;;
48813;SDS011;34634;44.108;3.074;2023-02-03T14:27:47;6.22;;;2.92;;
48813;SDS011;34634;44.108;3.074;2023-02-03T14:30:23;5.03;;;2.20;;
48813;SDS011;34634;44.108;3.074;2023-02-03T14:35:16;5.28;;;2.28;;
48813;SDS011;34634;44.108;3.074;2023-02-03T14:37:53;5.80;;;2.38;;
48813;SDS011;34634;44.108;3.074;2023-02-03T14:40:26;7.10;;;2.72;;
48813;SDS011;34634;44.108;3.074;2023-02-03T14:53:17;7.25;;;2.75;;
48813;SDS011;34634;44.108;3.074;2023-02-03T14:55:50;5.40;;;2.30;;
48813;SDS011;34634;44.108;3.074;2023-02-03T14:58:27;5.25;;;2.13;;
48813;SDS011;34634;44.108;3.074;2023-02-03T15:00:55;5.82;;;2.13;;
48813;SDS011;34634;44.108;3.074;2023-02-03T15:03:22;8.20;;;2.25;;
48813;SDS011;34634;44.108;3.074;2023-02-03T15:05:51;4.90;;;2.20;;
48813;SDS011;34634;44.108;3.074;2023-02-03T15:10:57;6.32;;;2.50;;
48813;SDS011;34634;44.108;3.074;2023-02-03T15:13:24;8.20;;;2.40;;
48813;SDS011;34634;44.108;3.074;2023-02-03T15:15:54;5.30;;;2.20;;
48813;SDS011;34634;44.108;3.074;2023-02-03T15:18:31;6.25;;;2.00;;
48813;SDS011;34634;44.108;3.074;2023-02-03T15:21:00;6.90;;;2.63;;
48813;SDS011;34634;44.108;3.074;2023-02-03T15:23:35;6.03;;;2.25;;
48813;SDS011;34634;44.108;3.074;2023-02-03T15:26:08;5.20;;;2.10;;
48813;SDS011;34634;44.108;3.074;2023-02-03T15:28:36;7.63;;;2.97;;
48813;SDS011;34634;44.108;3.074;2023-02-03T15:33:29;5.93;;;2.33;;
48813;SDS011;34634;44.108;3.074;2023-02-03T15:36:06;8.52;;;2.65;;
48813;SDS011;34634;44.108;3.074;2023-02-03T15:38:35;5.55;;;2.60;;
48813;SDS011;34634;44.108;3.074;2023-02-03T15:41:03;6.80;;;3.20;;
48813;SDS011;34634;44.108;3.074;2023-02-03T15:43:38;9.32;;;3.70;;
48813;SDS011;34634;44.108;3.074;2023-02-03T15:46:07;8.63;;;2.72;;
48813;SDS011;34634;44.108;3.074;2023-02-03T15:51:17;7.75;;;3.40;;
48813;SDS011;34634;44.108;3.074;2023-02-03T15:53:51;6.85;;;3.50;;
48813;SDS011;34634;44.108;3.074;2023-02-03T15:56:29;9.25;;;3.78;;
48813;SDS011;34634;44.108;3.074;2023-02-03T15:58:59;10.48;;;3.40;;
48813;SDS011;34634;44.108;3.074;2023-02-03T16:01:26;7.40;;;3.05;;
48813;SDS011;34634;44.108;3.074;2023-02-03T16:03:53;10.15;;;3.38;;
48813;SDS011;34634;44.108;3.074;2023-02-03T16:06:27;6.70;;;2.67;;
48813;SDS011;34634;44.108;3.074;2023-02-03T16:08:59;7.43;;;3.05;;
48813;SDS011;34634;44.108;3.074;2023-02-03T16:11:27;9.68;;;3.08;;
48813;SDS011;34634;44.108;3.074;2023-02-03T16:13:54;6.60;;;3.05;;
48813;SDS011;34634;44.108;3.074;2023-02-03T16:16:22;17.77;;;5.22;;
48813;SDS011;34634;44.108;3.074;2023-02-03T16:18:57;9.52;;;3.35;;
48813;SDS011;34634;44.108;3.074;2023-02-03T16:21:36;10.75;;;3.97;;
48813;SDS011;34634;44.108;3.074;2023-02-03T16:24:03;9.52;;;3.10;;
48813;SDS011;34634;44.108;3.074;2023-02-03T16:26:31;8.23;;;3.45;;
48813;SDS011;34634;44.108;3.074;2023-02-03T16:29:07;12.35;;;4.43;;
48813;SDS011;34634;44.108;3.074;2023-02-03T16:31:53;16.75;;;6.90;;
48813;SDS011;34634;44.108;3.074;2023-02-03T16:34:38;23.88;;;7.25;;
48813;SDS011;34634;44.108;3.074;2023-02-03T16:37:25;37.90;;;11.52;;
48813;SDS011;34634;44.108;3.074;2023-02-03T16:40:11;14.13;;;5.72;;
48813;SDS011;34634;44.108;3.074;2023-02-03T16:42:57;23.77;;;8.48;;
48813;SDS011;34634;44.108;3.074;2023-02-03T16:45:42;13.35;;;5.75;;
48813;SDS011;34634;44.108;3.074;2023-02-03T16:48:27;28.88;;;7.68;;
48813;SDS011;34634;44.108;3.074;2023-02-03T16:51:12;20.83;;;5.18;;
48813;SDS011;34634;44.108;3.074;2023-02-03T16:53:41;15.85;;;5.57;;
48813;SDS011;34634;44.108;3.074;2023-02-03T16:56:08;12.35;;;5.47;;